sensor_id;sensor_type;location;lat;lon;timestamp;P1;durP1;ratioP1;P2;durP2;ratioP2
66970;SDS011;53901;51.466;-2.588;2023-03-11T00:01:04;31.88;;;15.68;;
66970;SDS011;53901;51.466;-2.588;2023-03-11T00:03:29;29.10;;;14.18;;
66970;SDS011;53901;51.466;-2.588;2023-03-11T00:05:55;26.48;;;14.60;;
66970;SDS011;53901;51.466;-2.588;2023-03-11T00:08:23;28.38;;;13.68;;
66970;SDS011;53901;51.466;-2.588;2023-03-11T00:10:56;24.27;;;13.20;;
66970;SDS011;53901;51.466;-2.588;2023-03-11T00:13:26;21.92;;;12.80;;
66970;SDS011;53901;51.466;-2.588;2023-03-11T00:15:53;24.73;;;12.70;;
66970;SDS011;53901;51.466;-2.588;2023-03-11T00:18:24;23.40;;;13.18;;
66970;SDS011;53901;51.466;-2.588;2023-03-11T00:20:51;29.75;;;13.52;;
66970;SDS011;53901;51.466;-2.588;2023-03-11T00:23:16;24.90;;;14.57;;
66970;SDS011;53901;51.466;-2.588;2023-03-11T00:25:42;35.20;;;16.33;;
66970;SDS011;53901;51.466;-2.588;2023-03-11T00:28:08;26.85;;;14.68;;
66970;SDS011;53901;51.466;-2.588;2023-03-11T00:30:35;28.60;;;15.52;;
66970;SDS011;53901;51.466;-2.588;2023-03-11T00:33:01;24.02;;;13.98;;
66970;SDS011;53901;51.466;-2.588;2023-03-11T00:35:28;26.00;;;13.73;;
66970;SDS011;53901;51.466;-2.588;2023-03-11T00:37:59;29.08;;;14.43;;
66970;SDS011;53901;51.466;-2.588;2023-03-11T00:40:27;31.92;;;14.95;;
66970;SDS011;53901;51.466;-2.588;2023-03-11T00:42:53;27.95;;;15.05;;
66970;SDS011;53901;51.466;-2.588;2023-03-11T00:45:19;27.65;;;14.70;;
66970;SDS011;53901;51.466;-2.588;2023-03-11T00:47:44;25.92;;;14.65;;
66970;SDS011;53901;51.466;-2.588;2023-03-11T00:50:13;27.88;;;15.07;;
66970;SDS011;53901;51.466;-2.588;2023-03-11T00:52:45;25.90;;;14.27;;
66970;SDS011;53901;51.466;-2.588;2023-03-11T00:55:12;26.88;;;15.10;;
66970;SDS011;53901;51.466;-2.588;2023-03-11T00:57:39;25.80;;;14.07;;
66970;SDS011;53901;51.466;-2.588;2023-03-11T01:00:05;24.02;;;13.40;;
66970;SDS011;53901;51.466;-2.588;2023-03-11T01:02:35;22.52;;;13.10;;
66970;SDS011;53901;51.466;-2.588;2023-03-11T01:05:01;30.00;;;14.23;;
66970;SDS011;53901;51.466;-2.588;2023-03-11T01:07:27;29.10;;;15.02;;
66970;SDS011;53901;51.466;-2.588;2023-03-11T01:09:52;26.17;;;13.80;;
66970;SDS011;53901;51.466;-2.588;2023-03-11T01:12:18;61.00;;;32.88;;
66970;SDS011;53901;51.466;-2.588;2023-03-11T01:14:43;31.00;;;14.90;;
66970;SDS011;53901;51.466;-2.588;2023-03-11T01:17:08;27.70;;;14.23;;
66970;SDS011;53901;51.466;-2.588;2023-03-11T01:19:34;26.35;;;13.00;;
66970;SDS011;53901;51.466;-2.588;2023-03-11T01:21:59;25.17;;;12.98;;
66970;SDS011;53901;51.466;-2.588;2023-03-11T01:24:24;25.50;;;13.00;;
66970;SDS011;53901;51.466;-2.588;2023-03-11T01:26:50;26.13;;;13.50;;
66970;SDS011;53901;51.466;-2.588;2023-03-11T01:29:15;24.45;;;13.80;;
66970;SDS011;53901;51.466;-2.588;2023-03-11T01:31:40;20.08;;;11.52;;
66970;SDS011;53901;51.466;-2.588;2023-03-11T01:34:06;23.10;;;12.38;;
66970;SDS011;53901;51.466;-2.588;2023-03-11T01:36:31;22.70;;;12.32;;
66970;SDS011;53901;51.466;-2.588;2023-03-11T01:38:56;20.35;;;11.65;;
66970;SDS011;53901;51.466;-2.588;2023-03-11T01:41:22;22.92;;;12.70;;
66970;SDS011;53901;51.466;-2.588;2023-03-11T01:43:49;19.52;;;11.55;;
66970;SDS011;53901;51.466;-2.588;2023-03-11T01:48:55;21.92;;;13.07;;
66970;SDS011;53901;51.466;-2.588;2023-03-11T01:54:03;23.83;;;11.98;;
66970;SDS011;53901;51.466;-2.588;2023-03-11T01:56:31;24.73;;;12.85;;
66970;SDS011;53901;51.466;-2.588;2023-03-11T01:58:57;23.98;;;12.32;;
66970;SDS011;53901;51.466;-2.588;2023-03-11T02:01:22;22.90;;;12.45;;
66970;SDS011;53901;51.466;-2.588;2023-03-11T02:03:48;19.75;;;11.73;;
66970;SDS011;53901;51.466;-2.588;2023-03-11T02:06:16;22.70;;;12.70;;
66970;SDS011;53901;51.466;-2.588;2023-03-11T02:08:43;21.95;;;12.45;;
66970;SDS011;53901;51.466;-2.588;2023-03-11T02:11:10;21.52;;;12.05;;
66970;SDS011;53901;51.466;-2.588;2023-03-11T02:13:38;21.90;;;12.38;;
66970;SDS011;53901;51.466;-2.588;2023-03-11T02:16:05;18.65;;;11.43;;
66970;SDS011;53901;51.466;-2.588;2023-03-11T02:18:31;22.15;;;12.20;;
66970;SDS011;53901;51.466;-2.588;2023-03-11T02:21:02;22.98;;;12.75;;
66970;SDS011;53901;51.466;-2.588;2023-03-11T02:23:39;22.25;;;12.77;;
66970;SDS011;53901;51.466;-2.588;2023-03-11T02:26:18;27.35;;;11.80;;
66970;SDS011;53901;51.466;-2.588;2023-03-11T02:28:47;22.52;;;11.15;;
66970;SDS011;53901;51.466;-2.588;2023-03-11T02:31:14;20.20;;;11.93;;
66970;SDS011;53901;51.466;-2.588;2023-03-11T02:33:40;22.02;;;12.70;;
66970;SDS011;53901;51.466;-2.588;2023-03-11T02:36:06;20.50;;;11.25;;
66970;SDS011;53901;51.466;-2.588;2023-03-11T02:38:31;21.10;;;11.60;;
66970;SDS011;53901;51.466;-2.588;2023-03-11T02:40:58;29.10;;;11.82;;
66970;SDS011;53901;51.466;-2.588;2023-03-11T02:45:57;19.10;;;11.35;;
66970;SDS011;53901;51.466;-2.588;2023-03-11T02:48:22;19.60;;;11.60;;
66970;SDS011;53901;51.466;-2.588;2023-03-11T02:50:48;19.83;;;11.05;;
66970;SDS011;53901;51.466;-2.588;2023-03-11T02:53:13;21.92;;;11.93;;
66970;SDS011;53901;51.466;-2.588;2023-03-11T02:55:39;20.60;;;10.95;;
66970;SDS011;53901;51.466;-2.588;2023-03-11T02:58:04;19.05;;;10.82;;
66970;SDS011;53901;51.466;-2.588;2023-03-11T03:00:30;19.15;;;11.18;;
66970;SDS011;53901;51.466;-2.588;2023-03-11T03:02:56;18.67;;;10.65;;
66970;SDS011;53901;51.466;-2.588;2023-03-11T03:05:21;18.25;;;10.77;;
66970;SDS011;53901;51.466;-2.588;2023-03-11T03:07:47;17.88;;;10.93;;
66970;SDS011;53901;51.466;-2.588;2023-03-11T03:10:13;20.90;;;11.70;;
66970;SDS011;53901;51.466;-2.588;2023-03-11T03:12:43;17.80;;;10.35;;
66970;SDS011;53901;51.466;-2.588;2023-03-11T03:15:09;16.13;;;10.43;;
66970;SDS011;53901;51.466;-2.588;2023-03-11T03:17:35;16.05;;;10.00;;
66970;SDS011;53901;51.466;-2.588;2023-03-11T03:20:01;19.35;;;10.30;;
66970;SDS011;53901;51.466;-2.588;2023-03-11T03:22:29;20.15;;;11.38;;
66970;SDS011;53901;51.466;-2.588;2023-03-11T03:24:54;19.05;;;11.70;;
66970;SDS011;53901;51.466;-2.588;2023-03-11T03:27:20;15.43;;;10.02;;
66970;SDS011;53901;51.466;-2.588;2023-03-11T03:29:45;15.30;;;9.65;;
66970;SDS011;53901;51.466;-2.588;2023-03-11T03:32:11;15.20;;;9.40;;
66970;SDS011;53901;51.466;-2.588;2023-03-11T03:34:36;16.50;;;10.18;;
66970;SDS011;53901;51.466;-2.588;2023-03-11T03:37:01;16.48;;;9.55;;
66970;SDS011;53901;51.466;-2.588;2023-03-11T03:39:27;12.25;;;8.60;;
66970;SDS011;53901;51.466;-2.588;2023-03-11T03:41:52;17.05;;;9.40;;
66970;SDS011;53901;51.466;-2.588;2023-03-11T03:44:18;14.30;;;8.50;;
66970;SDS011;53901;51.466;-2.588;2023-03-11T03:46:43;13.45;;;8.48;;
66970;SDS011;53901;51.466;-2.588;2023-03-11T03:49:08;17.83;;;8.90;;
66970;SDS011;53901;51.466;-2.588;2023-03-11T03:51:34;13.15;;;8.45;;
66970;SDS011;53901;51.466;-2.588;2023-03-11T03:53:59;15.30;;;9.13;;
66970;SDS011;53901;51.466;-2.588;2023-03-11T03:56:25;18.67;;;10.20;;
66970;SDS011;53901;51.466;-2.588;2023-03-11T03:58:50;16.30;;;9.82;;
66970;SDS011;53901;51.466;-2.588;2023-03-11T04:01:15;16.30;;;9.20;;
66970;SDS011;53901;51.466;-2.588;2023-03-11T04:03:41;16.13;;;9.00;;
66970;SDS011;53901;51.466;-2.588;2023-03-11T04:06:08;18.65;;;9.30;;
66970;SDS011;53901;51.466;-2.588;2023-03-11T04:08:53;13.55;;;8.10;;
66970;SDS011;53901;51.466;-2.588;2023-03-11T04:11:19;14.07;;;7.90;;
66970;SDS011;53901;51.466;-2.588;2023-03-11T04:13:44;13.75;;;7.40;;
66970;SDS011;53901;51.466;-2.588;2023-03-11T04:16:17;13.23;;;8.63;;
66970;SDS011;53901;51.466;-2.588;2023-03-11T04:18:44;13.45;;;8.05;;
66970;SDS011;53901;51.466;-2.588;2023-03-11T04:21:10;13.23;;;7.78;;
66970;SDS011;53901;51.466;-2.588;2023-03-11T04:23:35;15.38;;;7.95;;
66970;SDS011;53901;51.466;-2.588;2023-03-11T04:26:00;16.92;;;8.65;;
66970;SDS011;53901;51.466;-2.588;2023-03-11T04:28:26;18.00;;;8.60;;
66970;SDS011;53901;51.466;-2.588;2023-03-11T04:30:51;16.10;;;9.05;;
66970;SDS011;53901;51.466;-2.588;2023-03-11T04:33:17;14.07;;;8.40;;
66970;SDS011;53901;51.466;-2.588;2023-03-11T04:35:42;14.10;;;8.23;;
66970;SDS011;53901;51.466;-2.588;2023-03-11T04:38:08;14.65;;;7.75;;
66970;SDS011;53901;51.466;-2.588;2023-03-11T04:40:33;17.25;;;8.65;;
66970;SDS011;53901;51.466;-2.588;2023-03-11T04:43:00;18.38;;;8.70;;
66970;SDS011;53901;51.466;-2.588;2023-03-11T04:45:25;15.43;;;8.25;;
66970;SDS011;53901;51.466;-2.588;2023-03-11T04:47:51;25.73;;;8.68;;
66970;SDS011;53901;51.466;-2.588;2023-03-11T04:50:16;13.68;;;8.18;;
66970;SDS011;53901;51.466;-2.588;2023-03-11T04:52:42;16.60;;;8.57;;
66970;SDS011;53901;51.466;-2.588;2023-03-11T04:55:08;12.27;;;7.45;;
66970;SDS011;53901;51.466;-2.588;2023-03-11T04:57:34;16.00;;;7.30;;
66970;SDS011;53901;51.466;-2.588;2023-03-11T04:59:59;13.80;;;6.80;;
66970;SDS011;53901;51.466;-2.588;2023-03-11T05:02:24;10.85;;;6.78;;
66970;SDS011;53901;51.466;-2.588;2023-03-11T05:04:50;11.98;;;6.82;;
66970;SDS011;53901;51.466;-2.588;2023-03-11T05:07:15;16.42;;;6.15;;
66970;SDS011;53901;51.466;-2.588;2023-03-11T05:09:40;11.05;;;6.05;;
66970;SDS011;53901;51.466;-2.588;2023-03-11T05:12:06;12.73;;;5.40;;
66970;SDS011;53901;51.466;-2.588;2023-03-11T05:14:31;8.10;;;5.13;;
66970;SDS011;53901;51.466;-2.588;2023-03-11T05:16:57;10.60;;;5.68;;
66970;SDS011;53901;51.466;-2.588;2023-03-11T05:19:22;7.10;;;4.40;;
66970;SDS011;53901;51.466;-2.588;2023-03-11T05:21:58;9.15;;;4.45;;
66970;SDS011;53901;51.466;-2.588;2023-03-11T05:24:24;11.02;;;4.53;;
66970;SDS011;53901;51.466;-2.588;2023-03-11T05:26:50;11.50;;;4.70;;
66970;SDS011;53901;51.466;-2.588;2023-03-11T05:29:16;9.90;;;4.30;;
66970;SDS011;53901;51.466;-2.588;2023-03-11T05:31:41;8.43;;;4.35;;
66970;SDS011;53901;51.466;-2.588;2023-03-11T05:34:06;5.57;;;3.38;;
66970;SDS011;53901;51.466;-2.588;2023-03-11T05:36:32;8.65;;;3.95;;
66970;SDS011;53901;51.466;-2.588;2023-03-11T05:38:57;7.88;;;3.75;;
66970;SDS011;53901;51.466;-2.588;2023-03-11T05:41:22;8.18;;;4.15;;
66970;SDS011;53901;51.466;-2.588;2023-03-11T05:43:48;7.82;;;3.80;;
66970;SDS011;53901;51.466;-2.588;2023-03-11T05:46:13;7.07;;;2.92;;
66970;SDS011;53901;51.466;-2.588;2023-03-11T05:48:39;7.85;;;3.75;;
66970;SDS011;53901;51.466;-2.588;2023-03-11T05:51:07;8.40;;;3.05;;
66970;SDS011;53901;51.466;-2.588;2023-03-11T05:53:34;13.07;;;3.83;;
66970;SDS011;53901;51.466;-2.588;2023-03-11T05:55:59;7.60;;;3.70;;
66970;SDS011;53901;51.466;-2.588;2023-03-11T05:58:26;8.02;;;3.67;;
66970;SDS011;53901;51.466;-2.588;2023-03-11T06:00:55;5.93;;;3.25;;
66970;SDS011;53901;51.466;-2.588;2023-03-11T06:03:21;10.38;;;3.63;;
66970;SDS011;53901;51.466;-2.588;2023-03-11T06:05:47;7.20;;;3.10;;
66970;SDS011;53901;51.466;-2.588;2023-03-11T06:08:13;6.28;;;2.85;;
66970;SDS011;53901;51.466;-2.588;2023-03-11T06:10:39;7.10;;;3.40;;
66970;SDS011;53901;51.466;-2.588;2023-03-11T06:13:04;13.25;;;3.42;;
66970;SDS011;53901;51.466;-2.588;2023-03-11T06:15:31;8.88;;;3.45;;
66970;SDS011;53901;51.466;-2.588;2023-03-11T06:17:57;8.90;;;3.50;;
66970;SDS011;53901;51.466;-2.588;2023-03-11T06:20:23;7.90;;;3.17;;
66970;SDS011;53901;51.466;-2.588;2023-03-11T06:22:49;6.38;;;2.90;;
66970;SDS011;53901;51.466;-2.588;2023-03-11T06:25:14;7.40;;;3.42;;
66970;SDS011;53901;51.466;-2.588;2023-03-11T06:27:40;7.65;;;3.13;;
66970;SDS011;53901;51.466;-2.588;2023-03-11T06:30:05;12.70;;;3.45;;
66970;SDS011;53901;51.466;-2.588;2023-03-11T06:32:31;6.93;;;2.70;;
66970;SDS011;53901;51.466;-2.588;2023-03-11T06:34:58;7.70;;;3.40;;
66970;SDS011;53901;51.466;-2.588;2023-03-11T06:37:24;8.80;;;3.53;;
66970;SDS011;53901;51.466;-2.588;2023-03-11T06:39:53;7.22;;;3.47;;
66970;SDS011;53901;51.466;-2.588;2023-03-11T06:42:19;7.32;;;3.47;;
66970;SDS011;53901;51.466;-2.588;2023-03-11T06:44:47;11.32;;;3.63;;
66970;SDS011;53901;51.466;-2.588;2023-03-11T06:47:13;11.82;;;3.97;;
66970;SDS011;53901;51.466;-2.588;2023-03-11T06:49:38;9.82;;;3.65;;
66970;SDS011;53901;51.466;-2.588;2023-03-11T06:52:06;13.93;;;3.55;;
66970;SDS011;53901;51.466;-2.588;2023-03-11T06:54:32;10.20;;;3.53;;
66970;SDS011;53901;51.466;-2.588;2023-03-11T06:56:57;4.78;;;3.05;;
66970;SDS011;53901;51.466;-2.588;2023-03-11T06:59:23;7.78;;;3.45;;
66970;SDS011;53901;51.466;-2.588;2023-03-11T07:01:48;5.63;;;3.20;;
66970;SDS011;53901;51.466;-2.588;2023-03-11T07:04:14;8.02;;;4.07;;
66970;SDS011;53901;51.466;-2.588;2023-03-11T07:06:40;13.15;;;3.60;;
66970;SDS011;53901;51.466;-2.588;2023-03-11T07:09:06;9.75;;;3.42;;
66970;SDS011;53901;51.466;-2.588;2023-03-11T07:11:31;7.65;;;4.07;;
66970;SDS011;53901;51.466;-2.588;2023-03-11T07:13:57;10.80;;;3.70;;
66970;SDS011;53901;51.466;-2.588;2023-03-11T07:16:23;9.52;;;4.15;;
66970;SDS011;53901;51.466;-2.588;2023-03-11T07:18:51;7.97;;;3.80;;
66970;SDS011;53901;51.466;-2.588;2023-03-11T07:21:18;13.13;;;4.13;;
66970;SDS011;53901;51.466;-2.588;2023-03-11T07:23:44;10.75;;;3.72;;
66970;SDS011;53901;51.466;-2.588;2023-03-11T07:26:11;6.70;;;3.45;;
66970;SDS011;53901;51.466;-2.588;2023-03-11T07:28:37;8.63;;;3.75;;
66970;SDS011;53901;51.466;-2.588;2023-03-11T07:31:10;9.00;;;3.95;;
66970;SDS011;53901;51.466;-2.588;2023-03-11T07:33:36;10.25;;;3.55;;
66970;SDS011;53901;51.466;-2.588;2023-03-11T07:36:09;11.50;;;3.78;;
66970;SDS011;53901;51.466;-2.588;2023-03-11T07:38:39;7.03;;;3.08;;
66970;SDS011;53901;51.466;-2.588;2023-03-11T07:41:05;10.85;;;4.43;;
66970;SDS011;53901;51.466;-2.588;2023-03-11T07:43:31;14.05;;;3.92;;
66970;SDS011;53901;51.466;-2.588;2023-03-11T07:46:07;11.45;;;3.55;;
66970;SDS011;53901;51.466;-2.588;2023-03-11T07:48:38;7.30;;;3.05;;
66970;SDS011;53901;51.466;-2.588;2023-03-11T07:51:05;9.13;;;2.65;;
66970;SDS011;53901;51.466;-2.588;2023-03-11T07:53:35;4.45;;;2.50;;
66970;SDS011;53901;51.466;-2.588;2023-03-11T07:56:00;12.73;;;2.85;;
66970;SDS011;53901;51.466;-2.588;2023-03-11T07:58:27;5.18;;;2.42;;
66970;SDS011;53901;51.466;-2.588;2023-03-11T08:00:52;5.47;;;2.88;;
66970;SDS011;53901;51.466;-2.588;2023-03-11T08:03:21;6.80;;;3.00;;
66970;SDS011;53901;51.466;-2.588;2023-03-11T08:05:49;6.25;;;2.63;;
66970;SDS011;53901;51.466;-2.588;2023-03-11T08:08:14;7.05;;;2.85;;
66970;SDS011;53901;51.466;-2.588;2023-03-11T08:10:40;4.82;;;2.60;;
66970;SDS011;53901;51.466;-2.588;2023-03-11T08:13:05;8.82;;;3.00;;
66970;SDS011;53901;51.466;-2.588;2023-03-11T08:15:31;3.88;;;2.38;;
66970;SDS011;53901;51.466;-2.588;2023-03-11T08:17:56;5.28;;;2.55;;
66970;SDS011;53901;51.466;-2.588;2023-03-11T08:20:21;8.80;;;3.00;;
66970;SDS011;53901;51.466;-2.588;2023-03-11T08:22:47;7.47;;;3.00;;
66970;SDS011;53901;51.466;-2.588;2023-03-11T08:25:12;11.73;;;3.15;;
66970;SDS011;53901;51.466;-2.588;2023-03-11T08:27:37;8.60;;;3.47;;
66970;SDS011;53901;51.466;-2.588;2023-03-11T08:30:04;8.88;;;3.00;;
66970;SDS011;53901;51.466;-2.588;2023-03-11T08:32:30;8.10;;;2.45;;
66970;SDS011;53901;51.466;-2.588;2023-03-11T08:34:56;5.05;;;2.80;;
66970;SDS011;53901;51.466;-2.588;2023-03-11T08:37:22;6.25;;;2.88;;
66970;SDS011;53901;51.466;-2.588;2023-03-11T08:39:47;7.93;;;2.28;;
66970;SDS011;53901;51.466;-2.588;2023-03-11T08:42:13;4.78;;;2.55;;
66970;SDS011;53901;51.466;-2.588;2023-03-11T08:44:38;6.10;;;3.08;;
66970;SDS011;53901;51.466;-2.588;2023-03-11T08:47:03;3.53;;;2.20;;
66970;SDS011;53901;51.466;-2.588;2023-03-11T08:49:29;20.17;;;3.63;;
66970;SDS011;53901;51.466;-2.588;2023-03-11T08:51:55;10.20;;;3.20;;
66970;SDS011;53901;51.466;-2.588;2023-03-11T08:54:20;8.88;;;3.05;;
66970;SDS011;53901;51.466;-2.588;2023-03-11T08:56:46;7.15;;;2.70;;
66970;SDS011;53901;51.466;-2.588;2023-03-11T08:59:12;10.13;;;4.35;;
66970;SDS011;53901;51.466;-2.588;2023-03-11T09:01:38;9.38;;;3.45;;
66970;SDS011;53901;51.466;-2.588;2023-03-11T09:04:03;14.77;;;3.05;;
66970;SDS011;53901;51.466;-2.588;2023-03-11T09:06:28;21.95;;;3.50;;
66970;SDS011;53901;51.466;-2.588;2023-03-11T09:08:54;4.70;;;2.35;;
66970;SDS011;53901;51.466;-2.588;2023-03-11T09:11:19;10.10;;;3.72;;
66970;SDS011;53901;51.466;-2.588;2023-03-11T09:13:46;8.70;;;3.47;;
66970;SDS011;53901;51.466;-2.588;2023-03-11T09:16:13;10.60;;;3.28;;
66970;SDS011;53901;51.466;-2.588;2023-03-11T09:18:40;8.73;;;3.67;;
66970;SDS011;53901;51.466;-2.588;2023-03-11T09:21:05;6.75;;;3.22;;
66970;SDS011;53901;51.466;-2.588;2023-03-11T09:23:31;16.35;;;2.88;;
66970;SDS011;53901;51.466;-2.588;2023-03-11T09:25:56;12.38;;;3.35;;
66970;SDS011;53901;51.466;-2.588;2023-03-11T09:28:22;10.13;;;3.05;;
66970;SDS011;53901;51.466;-2.588;2023-03-11T09:30:47;9.23;;;3.05;;
66970;SDS011;53901;51.466;-2.588;2023-03-11T09:33:13;8.18;;;3.97;;
66970;SDS011;53901;51.466;-2.588;2023-03-11T09:35:38;6.50;;;3.28;;
66970;SDS011;53901;51.466;-2.588;2023-03-11T09:38:03;10.07;;;4.55;;
66970;SDS011;53901;51.466;-2.588;2023-03-11T09:40:37;13.07;;;4.10;;
66970;SDS011;53901;51.466;-2.588;2023-03-11T09:48:54;8.32;;;3.22;;
66970;SDS011;53901;51.466;-2.588;2023-03-11T09:51:30;7.10;;;3.13;;
66970;SDS011;53901;51.466;-2.588;2023-03-11T09:53:58;3.03;;;1.70;;
66970;SDS011;53901;51.466;-2.588;2023-03-11T09:56:28;9.95;;;3.28;;
66970;SDS011;53901;51.466;-2.588;2023-03-11T09:58:55;11.85;;;3.80;;
66970;SDS011;53901;51.466;-2.588;2023-03-11T10:01:29;5.28;;;2.40;;
66970;SDS011;53901;51.466;-2.588;2023-03-11T10:06:52;8.13;;;3.47;;
66970;SDS011;53901;51.466;-2.588;2023-03-11T10:09:29;10.95;;;3.28;;
66970;SDS011;53901;51.466;-2.588;2023-03-11T10:17:21;8.75;;;2.78;;
66970;SDS011;53901;51.466;-2.588;2023-03-11T10:19:55;15.35;;;3.70;;
66970;SDS011;53901;51.466;-2.588;2023-03-11T10:28:16;13.65;;;3.22;;
66970;SDS011;53901;51.466;-2.588;2023-03-11T10:30:46;10.23;;;2.95;;
66970;SDS011;53901;51.466;-2.588;2023-03-11T10:33:28;7.78;;;2.60;;
66970;SDS011;53901;51.466;-2.588;2023-03-11T10:35:59;12.75;;;3.50;;
66970;SDS011;53901;51.466;-2.588;2023-03-11T10:38:33;5.70;;;2.75;;
66970;SDS011;53901;51.466;-2.588;2023-03-11T10:41:11;5.95;;;1.92;;
66970;SDS011;53901;51.466;-2.588;2023-03-11T10:43:42;6.38;;;2.90;;
66970;SDS011;53901;51.466;-2.588;2023-03-11T10:46:27;5.15;;;2.30;;
66970;SDS011;53901;51.466;-2.588;2023-03-11T10:48:53;13.43;;;2.77;;
66970;SDS011;53901;51.466;-2.588;2023-03-11T10:51:20;6.82;;;2.60;;
66970;SDS011;53901;51.466;-2.588;2023-03-11T10:53:54;6.80;;;2.15;;
66970;SDS011;53901;51.466;-2.588;2023-03-11T10:56:25;6.25;;;2.17;;
66970;SDS011;53901;51.466;-2.588;2023-03-11T10:58:57;3.08;;;1.50;;
66970;SDS011;53901;51.466;-2.588;2023-03-11T11:01:23;4.82;;;2.28;;
66970;SDS011;53901;51.466;-2.588;2023-03-11T11:03:50;4.03;;;1.95;;
66970;SDS011;53901;51.466;-2.588;2023-03-11T11:14:40;5.72;;;2.15;;
66970;SDS011;53901;51.466;-2.588;2023-03-11T11:17:42;4.60;;;2.05;;
66970;SDS011;53901;51.466;-2.588;2023-03-11T11:20:01;11.73;;;2.47;;
66970;SDS011;53901;51.466;-2.588;2023-03-11T11:22:37;4.90;;;2.35;;
66970;SDS011;53901;51.466;-2.588;2023-03-11T11:25:22;3.63;;;1.88;;
66970;SDS011;53901;51.466;-2.588;2023-03-11T11:27:53;3.97;;;1.40;;
66970;SDS011;53901;51.466;-2.588;2023-03-11T11:30:37;4.63;;;1.58;;
66970;SDS011;53901;51.466;-2.588;2023-03-11T11:33:21;5.13;;;2.78;;
66970;SDS011;53901;51.466;-2.588;2023-03-11T11:35:49;8.82;;;4.70;;
66970;SDS011;53901;51.466;-2.588;2023-03-11T11:38:16;12.63;;;4.28;;
66970;SDS011;53901;51.466;-2.588;2023-03-11T11:40:42;9.55;;;3.97;;
66970;SDS011;53901;51.466;-2.588;2023-03-11T11:43:14;3.40;;;2.03;;
66970;SDS011;53901;51.466;-2.588;2023-03-11T11:45:43;2.85;;;1.35;;
66970;SDS011;53901;51.466;-2.588;2023-03-11T11:48:13;2.53;;;1.30;;
66970;SDS011;53901;51.466;-2.588;2023-03-11T11:50:47;3.72;;;1.67;;
66970;SDS011;53901;51.466;-2.588;2023-03-11T11:56:16;1.98;;;1.30;;
66970;SDS011;53901;51.466;-2.588;2023-03-11T11:58:42;1.92;;;1.30;;
66970;SDS011;53901;51.466;-2.588;2023-03-11T12:07:03;9.18;;;1.58;;
66970;SDS011;53901;51.466;-2.588;2023-03-11T12:12:35;4.88;;;1.70;;
66970;SDS011;53901;51.466;-2.588;2023-03-11T12:15:28;4.35;;;1.70;;
66970;SDS011;53901;51.466;-2.588;2023-03-11T12:17:58;1.65;;;1.00;;
66970;SDS011;53901;51.466;-2.588;2023-03-11T12:20:30;2.05;;;1.20;;
66970;SDS011;53901;51.466;-2.588;2023-03-11T12:23:03;2.75;;;1.67;;
66970;SDS011;53901;51.466;-2.588;2023-03-11T12:25:49;3.15;;;1.50;;
66970;SDS011;53901;51.466;-2.588;2023-03-11T12:28:26;9.02;;;1.52;;
66970;SDS011;53901;51.466;-2.588;2023-03-11T12:34:01;4.70;;;1.77;;
66970;SDS011;53901;51.466;-2.588;2023-03-11T12:36:28;4.72;;;1.80;;
66970;SDS011;53901;51.466;-2.588;2023-03-11T12:41:37;2.80;;;1.42;;
66970;SDS011;53901;51.466;-2.588;2023-03-11T12:54:33;1.20;;;0.70;;
66970;SDS011;53901;51.466;-2.588;2023-03-11T13:05:22;6.40;;;2.63;;
66970;SDS011;53901;51.466;-2.588;2023-03-11T13:12:59;5.28;;;1.52;;
66970;SDS011;53901;51.466;-2.588;2023-03-11T13:15:25;2.97;;;1.00;;
66970;SDS011;53901;51.466;-2.588;2023-03-11T13:20:42;3.40;;;1.52;;
66970;SDS011;53901;51.466;-2.588;2023-03-11T13:33:53;5.75;;;1.98;;
66970;SDS011;53901;51.466;-2.588;2023-03-11T13:36:23;5.72;;;2.80;;
66970;SDS011;53901;51.466;-2.588;2023-03-11T13:41:51;6.05;;;2.75;;
66970;SDS011;53901;51.466;-2.588;2023-03-11T13:46:49;5.10;;;2.47;;
66970;SDS011;53901;51.466;-2.588;2023-03-11T13:49:25;11.32;;;3.28;;
66970;SDS011;53901;51.466;-2.588;2023-03-11T13:52:00;8.43;;;4.38;;
66970;SDS011;53901;51.466;-2.588;2023-03-11T13:54:41;6.82;;;2.70;;
66970;SDS011;53901;51.466;-2.588;2023-03-11T13:57:24;3.13;;;1.75;;
66970;SDS011;53901;51.466;-2.588;2023-03-11T13:59:53;4.47;;;2.20;;
66970;SDS011;53901;51.466;-2.588;2023-03-11T14:02:21;6.63;;;2.20;;
66970;SDS011;53901;51.466;-2.588;2023-03-11T14:04:49;4.18;;;1.73;;
66970;SDS011;53901;51.466;-2.588;2023-03-11T14:07:24;4.13;;;2.20;;
66970;SDS011;53901;51.466;-2.588;2023-03-11T14:10:07;7.47;;;2.72;;
66970;SDS011;53901;51.466;-2.588;2023-03-11T14:12:35;7.20;;;3.63;;
66970;SDS011;53901;51.466;-2.588;2023-03-11T14:15:03;9.43;;;3.35;;
66970;SDS011;53901;51.466;-2.588;2023-03-11T14:17:29;4.28;;;2.47;;
66970;SDS011;53901;51.466;-2.588;2023-03-11T14:20:05;5.00;;;2.40;;
66970;SDS011;53901;51.466;-2.588;2023-03-11T14:22:40;4.20;;;1.67;;
66970;SDS011;53901;51.466;-2.588;2023-03-11T14:25:09;3.95;;;2.20;;
66970;SDS011;53901;51.466;-2.588;2023-03-11T14:28:05;8.32;;;1.90;;
66970;SDS011;53901;51.466;-2.588;2023-03-11T14:30:31;6.75;;;1.73;;
66970;SDS011;53901;51.466;-2.588;2023-03-11T14:33:02;2.33;;;1.48;;
66970;SDS011;53901;51.466;-2.588;2023-03-11T14:35:30;7.78;;;2.45;;
66970;SDS011;53901;51.466;-2.588;2023-03-11T14:37:57;3.15;;;2.00;;
66970;SDS011;53901;51.466;-2.588;2023-03-11T14:40:28;7.25;;;3.03;;
66970;SDS011;53901;51.466;-2.588;2023-03-11T14:42:55;6.28;;;2.05;;
66970;SDS011;53901;51.466;-2.588;2023-03-11T14:45:30;4.20;;;1.80;;
66970;SDS011;53901;51.466;-2.588;2023-03-11T14:50:27;9.02;;;2.70;;
66970;SDS011;53901;51.466;-2.588;2023-03-11T14:55:32;5.68;;;2.30;;
66970;SDS011;53901;51.466;-2.588;2023-03-11T14:58:07;6.47;;;2.80;;
66970;SDS011;53901;51.466;-2.588;2023-03-11T15:00:41;4.43;;;2.55;;
66970;SDS011;53901;51.466;-2.588;2023-03-11T15:03:17;6.60;;;2.15;;
66970;SDS011;53901;51.466;-2.588;2023-03-11T15:05:48;10.18;;;5.45;;
66970;SDS011;53901;51.466;-2.588;2023-03-11T15:08:17;6.53;;;3.08;;
66970;SDS011;53901;51.466;-2.588;2023-03-11T15:13:39;4.75;;;1.80;;
66970;SDS011;53901;51.466;-2.588;2023-03-11T15:16:18;5.53;;;2.80;;
66970;SDS011;53901;51.466;-2.588;2023-03-11T15:18:57;8.80;;;2.75;;
66970;SDS011;53901;51.466;-2.588;2023-03-11T15:21:24;5.68;;;3.53;;
66970;SDS011;53901;51.466;-2.588;2023-03-11T15:26:29;4.47;;;2.50;;
66970;SDS011;53901;51.466;-2.588;2023-03-11T15:29:10;7.60;;;3.25;;
66970;SDS011;53901;51.466;-2.588;2023-03-11T15:31:38;6.90;;;3.15;;
66970;SDS011;53901;51.466;-2.588;2023-03-11T15:34:09;10.77;;;2.60;;
66970;SDS011;53901;51.466;-2.588;2023-03-11T15:36:42;7.10;;;4.00;;
66970;SDS011;53901;51.466;-2.588;2023-03-11T15:39:12;6.25;;;3.83;;
66970;SDS011;53901;51.466;-2.588;2023-03-11T15:41:42;7.53;;;4.07;;
66970;SDS011;53901;51.466;-2.588;2023-03-11T15:44:23;6.95;;;4.10;;
66970;SDS011;53901;51.466;-2.588;2023-03-11T15:46:49;6.60;;;4.05;;
66970;SDS011;53901;51.466;-2.588;2023-03-11T15:49:14;8.75;;;3.35;;
66970;SDS011;53901;51.466;-2.588;2023-03-11T15:51:40;6.40;;;3.47;;
66970;SDS011;53901;51.466;-2.588;2023-03-11T15:54:05;7.28;;;4.07;;
66970;SDS011;53901;51.466;-2.588;2023-03-11T15:56:31;8.00;;;4.78;;
66970;SDS011;53901;51.466;-2.588;2023-03-11T15:58:57;9.65;;;4.63;;
66970;SDS011;53901;51.466;-2.588;2023-03-11T16:01:23;10.00;;;5.10;;
66970;SDS011;53901;51.466;-2.588;2023-03-11T16:03:52;8.25;;;5.25;;
66970;SDS011;53901;51.466;-2.588;2023-03-11T16:06:18;10.18;;;6.07;;
66970;SDS011;53901;51.466;-2.588;2023-03-11T16:08:43;13.05;;;5.50;;
66970;SDS011;53901;51.466;-2.588;2023-03-11T16:11:10;12.20;;;5.47;;
66970;SDS011;53901;51.466;-2.588;2023-03-11T16:13:36;9.23;;;4.82;;
66970;SDS011;53901;51.466;-2.588;2023-03-11T16:16:02;11.82;;;5.47;;
66970;SDS011;53901;51.466;-2.588;2023-03-11T16:18:27;14.43;;;6.22;;